createdAt,value
2019-06-08T00:00:08.142Z,89.80
2019-06-08T00:02:36.707Z,89.70
2019-06-08T00:05:06.790Z,89.50
2019-06-08T00:07:35.375Z,89.20
2019-06-08T00:10:06.094Z,89.20
2019-06-08T00:12:34.656Z,89.00
2019-06-08T00:15:04.220Z,88.80
2019-06-08T00:17:38.603Z,88.60
2019-06-08T00:20:04.257Z,88.40
2019-06-08T00:22:32.855Z,88.10
2019-06-08T00:25:01.541Z,88.00
2019-06-08T00:27:30.282Z,87.70
2019-06-08T00:29:58.862Z,87.70
2019-06-08T00:32:27.435Z,87.40
2019-06-08T00:34:56.127Z,87.20
2019-06-08T00:37:25.029Z,87.40
2019-06-08T00:39:53.778Z,87.10
2019-06-08T00:42:23.325Z,86.90
2019-06-08T00:44:54.189Z,87.20
2019-06-08T00:47:22.959Z,86.90
2019-06-08T00:49:51.628Z,87.00
2019-06-08T00:52:21.030Z,87.00
2019-06-08T00:54:49.858Z,86.90
2019-06-08T00:57:19.587Z,86.90
2019-06-08T00:59:48.288Z,86.90
2019-06-08T01:02:18.185Z,86.70
2019-06-08T01:04:46.997Z,86.60
2019-06-08T01:07:15.597Z,86.50
2019-06-08T01:09:44.163Z,86.10
2019-06-08T01:12:12.791Z,85.70
2019-06-08T01:14:41.493Z,85.50
2019-06-08T01:17:10.058Z,85.40
2019-06-08T01:19:39.493Z,85.40
2019-06-08T01:22:08.059Z,85.30
2019-06-08T01:24:36.734Z,85.30
2019-06-08T01:27:05.616Z,85.30
2019-06-08T01:29:34.255Z,85.10
2019-06-08T01:32:02.863Z,85.10
2019-06-08T01:34:31.427Z,85.00
2019-06-08T01:37:00.037Z,85.00
2019-06-08T01:39:29.511Z,85.00
2019-06-08T01:41:58.301Z,85.00
2019-06-08T01:44:28.073Z,85.00
2019-06-08T01:46:56.854Z,85.00
2019-06-08T01:49:26.202Z,85.00
2019-06-08T01:51:54.995Z,85.00
2019-06-08T01:54:24.665Z,84.70
2019-06-08T01:56:53.548Z,84.60
2019-06-08T01:59:23.265Z,84.70
2019-06-08T02:01:52.153Z,84.90
2019-06-08T02:04:20.705Z,85.10
2019-06-08T02:06:49.272Z,85.10
2019-06-08T02:09:17.977Z,85.40
2019-06-08T02:11:46.539Z,86.00
2019-06-08T02:14:15.147Z,85.90
2019-06-08T02:16:43.786Z,86.10
2019-06-08T02:19:12.432Z,86.30
2019-06-08T02:21:41.010Z,86.50
2019-06-08T02:24:09.674Z,87.00
2019-06-08T02:26:39.615Z,87.00
2019-06-08T02:29:08.936Z,87.20
2019-06-08T02:31:37.894Z,87.50
2019-06-08T02:34:06.754Z,87.70
2019-06-08T02:36:35.934Z,87.40
2019-06-08T02:39:07.707Z,87.10
2019-06-08T02:41:37.618Z,86.90
2019-06-08T02:44:06.533Z,86.90
2019-06-08T02:46:36.006Z,86.80
2019-06-08T02:49:05.767Z,86.70
2019-06-08T02:51:36.414Z,86.80
2019-06-08T02:54:06.090Z,87.10
2019-06-08T02:56:36.847Z,87.10
2019-06-08T02:59:06.074Z,87.20
2019-06-08T03:01:35.969Z,87.40
2019-06-08T03:04:05.511Z,87.50
2019-06-08T03:06:36.873Z,87.50
2019-06-08T03:09:07.465Z,87.30
2019-06-08T03:11:37.658Z,88.00
2019-06-08T03:14:07.638Z,87.70
2019-06-08T03:16:38.330Z,87.90
2019-06-08T03:19:20.630Z,88.00
2019-06-08T03:21:38.339Z,87.80
2019-06-08T03:24:06.881Z,87.80
2019-06-08T03:26:36.610Z,88.60
2019-06-08T03:29:05.775Z,88.60
2019-06-08T03:31:38.381Z,89.20
2019-06-08T03:34:04.848Z,89.80
2019-06-08T03:36:35.903Z,90.00
2019-06-08T03:39:05.486Z,89.80
2019-06-08T03:41:34.794Z,89.20
2019-06-08T03:44:04.860Z,89.00
2019-06-08T03:46:34.495Z,88.70
2019-06-08T03:49:03.211Z,88.70
2019-06-08T03:51:35.225Z,88.30
2019-06-08T03:54:02.096Z,88.40
2019-06-08T03:56:30.657Z,88.20
2019-06-08T03:58:59.283Z,88.00
2019-06-08T04:01:27.940Z,87.90
2019-06-08T04:03:59.946Z,87.70
2019-06-08T04:06:26.748Z,88.00
2019-06-08T04:08:55.300Z,87.50
2019-06-08T04:11:23.869Z,87.80
2019-06-08T04:13:52.495Z,88.40
2019-06-08T04:16:22.231Z,89.30
2019-06-08T04:18:50.881Z,89.60
2019-06-08T04:21:19.573Z,89.20
2019-06-08T04:23:53.873Z,89.40
2019-06-08T04:26:22.466Z,89.60
2019-06-08T04:28:51.116Z,89.40
2019-06-08T04:31:19.676Z,89.40
2019-06-08T04:33:48.270Z,89.00
2019-06-08T04:36:16.828Z,89.30
2019-06-08T04:38:46.210Z,90.00
2019-06-08T04:41:15.784Z,90.00
2019-06-08T04:43:45.011Z,90.00
2019-06-08T04:46:14.621Z,90.20
2019-06-08T04:48:45.166Z,90.70
2019-06-08T04:51:13.458Z,91.00
2019-06-08T04:53:43.253Z,91.00
2019-06-08T04:56:12.223Z,91.00
2019-06-08T04:58:42.157Z,91.20
2019-06-08T05:01:11.025Z,92.00
2019-06-08T05:03:41.228Z,92.00
2019-06-08T05:06:09.867Z,92.90
2019-06-08T05:08:39.055Z,92.90
2019-06-08T05:11:07.932Z,92.70
2019-06-08T05:13:36.594Z,92.20
2019-06-08T05:16:05.313Z,92.00
2019-06-08T05:18:33.869Z,92.30
2019-06-08T05:21:02.435Z,92.30
2019-06-08T05:23:31.027Z,92.60
2019-06-08T05:25:59.691Z,92.40
2019-06-08T05:28:28.432Z,92.30
2019-06-08T05:30:56.989Z,92.10
2019-06-08T05:33:25.611Z,92.00
2019-06-08T05:35:54.217Z,91.90
2019-06-08T05:38:22.783Z,91.50
2019-06-08T05:40:51.343Z,91.10
2019-06-08T05:43:19.946Z,91.30
2019-06-08T05:45:49.823Z,91.30
2019-06-08T05:48:18.717Z,91.30
2019-06-08T05:51:00.507Z,91.50
2019-06-08T05:53:17.595Z,91.80
2019-06-08T05:55:46.284Z,91.50
2019-06-08T05:58:14.842Z,91.30
2019-06-08T06:00:44.199Z,91.30
2019-06-08T06:03:12.874Z,91.20
2019-06-08T06:05:42.422Z,91.20
2019-06-08T06:08:18.889Z,91.30
2019-06-08T06:10:42.882Z,91.50
2019-06-08T06:13:11.596Z,91.20
2019-06-08T06:15:40.966Z,92.50
2019-06-08T06:18:09.606Z,93.80
2019-06-08T06:20:38.487Z,94.00
2019-06-08T06:23:07.163Z,94.80
2019-06-08T06:25:35.741Z,94.50
2019-06-08T06:28:06.420Z,93.90
2019-06-08T06:30:34.960Z,93.30
2019-06-08T06:33:03.590Z,92.50
2019-06-08T06:35:33.374Z,91.90
2019-06-08T06:38:01.941Z,91.40
2019-06-08T06:40:30.487Z,91.00
2019-06-08T06:42:59.123Z,90.70
2019-06-08T06:45:27.747Z,90.40
2019-06-08T06:47:56.432Z,90.20
2019-06-08T06:50:25.169Z,90.10
2019-06-08T06:52:53.882Z,90.10
2019-06-08T06:55:25.260Z,89.90
2019-06-08T06:57:53.573Z,89.60
2019-06-08T07:00:32.669Z,89.40
2019-06-08T07:03:01.621Z,89.20
2019-06-08T07:05:30.288Z,89.30
2019-06-08T07:07:58.993Z,89.20
2019-06-08T07:10:27.570Z,89.10
2019-06-08T07:12:56.217Z,88.90
2019-06-08T07:15:29.190Z,89.00
2019-06-08T07:17:58.712Z,89.10
2019-06-08T07:20:27.421Z,88.90
2019-06-08T07:22:56.223Z,88.80
2019-06-08T07:25:24.824Z,88.70
2019-06-08T07:27:54.950Z,88.90
2019-06-08T07:30:23.976Z,89.00
2019-06-08T07:32:53.013Z,89.10
2019-06-08T07:35:21.787Z,90.00
2019-06-08T07:37:51.845Z,89.80
2019-06-08T07:40:20.587Z,90.00
2019-06-08T07:42:49.709Z,90.40
2019-06-08T07:45:19.690Z,90.00
2019-06-08T07:47:48.320Z,89.70
2019-06-08T07:50:17.554Z,89.80
2019-06-08T07:52:46.165Z,89.00
2019-06-08T07:55:14.820Z,86.80
2019-06-08T07:57:43.444Z,87.30
2019-06-08T08:00:12.351Z,90.00
2019-06-08T08:02:40.931Z,90.00
2019-06-08T08:05:09.828Z,90.30
2019-06-08T08:07:38.384Z,89.60
2019-06-08T08:10:10.678Z,88.60
2019-06-08T08:12:39.322Z,86.90
2019-06-08T08:15:08.507Z,89.10
2019-06-08T08:17:37.107Z,88.80
2019-06-08T08:20:08.227Z,89.50
2019-06-08T08:22:38.170Z,89.70
2019-06-08T08:25:08.340Z,87.10
2019-06-08T08:27:37.617Z,86.80
2019-06-08T08:30:08.322Z,87.60
2019-06-08T08:32:38.041Z,88.50
2019-06-08T08:35:08.853Z,84.30
2019-06-08T08:37:38.170Z,87.40
2019-06-08T08:40:08.200Z,84.40
2019-06-08T08:42:38.628Z,83.50
2019-06-08T08:45:08.791Z,84.90
2019-06-08T08:47:38.664Z,85.80
2019-06-08T08:50:08.237Z,85.00
2019-06-08T08:52:40.545Z,85.30
2019-06-08T08:55:08.275Z,81.80
2019-06-08T08:57:38.538Z,83.20
2019-06-08T09:00:09.299Z,84.90
2019-06-08T09:02:37.877Z,83.30
2019-06-08T09:05:08.581Z,79.20
2019-06-08T09:07:38.480Z,79.30
2019-06-08T09:10:11.281Z,77.90
2019-06-08T09:12:39.133Z,80.50
2019-06-08T09:15:08.564Z,76.10
2019-06-08T09:17:38.804Z,78.40
2019-06-08T09:20:13.040Z,78.10
2019-06-08T09:22:52.973Z,77.00
2019-06-08T09:25:13.382Z,78.40
2019-06-08T09:27:40.789Z,78.40
2019-06-08T09:30:09.651Z,77.90
2019-06-08T09:32:38.411Z,79.30
2019-06-08T09:35:09.396Z,79.40
2019-06-08T09:37:37.669Z,76.00
2019-06-08T09:40:07.003Z,76.80
2019-06-08T09:42:35.725Z,74.40
2019-06-08T09:45:08.920Z,77.10
2019-06-08T09:47:38.111Z,78.40
2019-06-08T09:50:09.287Z,76.60
2019-06-08T09:52:40.940Z,77.10
2019-06-08T09:55:09.537Z,77.00
2019-06-08T09:57:42.181Z,78.40
2019-06-08T10:00:18.165Z,78.40
2019-06-08T10:02:47.753Z,79.40
2019-06-08T10:05:13.610Z,79.60
2019-06-08T10:07:42.170Z,78.20
2019-06-08T10:10:11.102Z,78.40
2019-06-08T10:12:41.146Z,77.90
2019-06-08T10:15:10.523Z,76.10
2019-06-08T10:17:39.247Z,77.10
2019-06-08T10:20:10.066Z,75.30
2019-06-08T10:22:38.645Z,74.20
2019-06-08T10:25:11.042Z,73.30
2019-06-08T10:27:38.705Z,74.60
2019-06-08T10:30:10.135Z,75.40
2019-06-08T10:32:39.036Z,75.80
2019-06-08T10:35:10.515Z,72.50
2019-06-08T10:37:38.550Z,72.50
2019-06-08T10:40:07.954Z,73.00
2019-06-08T10:42:39.882Z,72.20
2019-06-08T10:45:12.154Z,73.10
2019-06-08T10:47:38.346Z,72.60
2019-06-08T10:50:14.721Z,71.20
2019-06-08T10:52:39.551Z,71.20
2019-06-08T10:55:11.606Z,71.40
2019-06-08T10:57:38.913Z,72.50
2019-06-08T11:00:20.931Z,71.90
2019-06-08T11:02:48.860Z,71.20
2019-06-08T11:05:18.185Z,70.70
2019-06-08T11:07:48.016Z,71.00
2019-06-08T11:10:19.081Z,68.70
2019-06-08T11:12:48.506Z,68.00
2019-06-08T11:15:17.582Z,68.70
2019-06-08T11:17:46.146Z,68.90
2019-06-08T11:20:15.065Z,70.00
2019-06-08T11:22:43.639Z,70.00
2019-06-08T11:25:15.979Z,67.50
2019-06-08T11:27:42.660Z,68.70
2019-06-08T11:30:20.407Z,69.20
2019-06-08T11:32:41.783Z,70.70
2019-06-08T11:35:12.539Z,69.60
2019-06-08T11:37:41.082Z,67.40
2019-06-08T11:40:12.367Z,70.00
2019-06-08T11:42:40.778Z,68.70
2019-06-08T11:45:12.656Z,67.40
2019-06-08T11:47:41.084Z,68.90
2019-06-08T11:50:13.104Z,69.40
2019-06-08T11:52:40.800Z,69.00
2019-06-08T11:55:12.540Z,66.90
2019-06-08T11:57:40.614Z,66.40
2019-06-08T12:00:23.674Z,67.20
2019-06-08T12:02:43.612Z,67.50
2019-06-08T12:05:14.146Z,68.00
2019-06-08T12:07:42.884Z,67.70
2019-06-08T12:10:13.813Z,66.90
2019-06-08T12:12:42.622Z,66.50
2019-06-08T12:15:13.382Z,67.50
2019-06-08T12:17:41.916Z,66.30
2019-06-08T12:20:17.082Z,67.70
2019-06-08T12:22:40.922Z,67.10
2019-06-08T12:25:10.292Z,68.20
2019-06-08T12:27:40.137Z,68.90
2019-06-08T12:30:18.603Z,66.90
2019-06-08T12:32:39.485Z,66.90
2019-06-08T12:35:09.710Z,65.90
2019-06-08T12:37:38.797Z,63.80
2019-06-08T12:40:09.744Z,63.70
2019-06-08T12:42:38.259Z,64.50
2019-06-08T12:45:07.527Z,64.60
2019-06-08T12:47:38.173Z,62.90
2019-06-08T12:50:09.031Z,64.50
2019-06-08T12:52:39.295Z,64.30
2019-06-08T12:55:14.691Z,64.00
2019-06-08T12:57:38.536Z,62.80
2019-06-08T13:00:09.884Z,62.70
2019-06-08T13:02:38.571Z,63.10
2019-06-08T13:05:11.589Z,61.60
2019-06-08T13:07:38.524Z,63.00
2019-06-08T13:10:08.700Z,62.70
2019-06-08T13:12:40.530Z,62.90
2019-06-08T13:15:09.656Z,63.70
2019-06-08T13:17:38.589Z,62.90
2019-06-08T13:20:10.599Z,61.70
2019-06-08T13:22:39.216Z,61.20
2019-06-08T13:25:19.203Z,61.20
2019-06-08T13:27:38.178Z,61.30
2019-06-08T13:30:07.581Z,61.00
2019-06-08T13:32:38.255Z,61.90
2019-06-08T13:35:08.223Z,61.70
2019-06-08T13:37:39.029Z,60.00
2019-06-08T13:40:08.328Z,60.30
2019-06-08T13:42:38.297Z,60.90
2019-06-08T13:45:08.673Z,59.60
2019-06-08T13:47:40.956Z,59.30
2019-06-08T13:50:11.019Z,59.40
2019-06-08T13:52:39.246Z,59.70
2019-06-08T13:55:09.047Z,58.10
2019-06-08T13:57:37.987Z,57.90
2019-06-08T14:00:09.184Z,58.80
2019-06-08T14:02:39.883Z,57.60
2019-06-08T14:05:09.875Z,57.70
2019-06-08T14:07:38.518Z,57.90
2019-06-08T14:10:09.476Z,56.70
2019-06-08T14:12:38.534Z,56.60
2019-06-08T14:15:08.650Z,57.10
2019-06-08T14:17:37.882Z,57.70
2019-06-08T14:20:08.042Z,59.10
2019-06-08T14:22:38.891Z,58.30
2019-06-08T14:25:10.507Z,58.20
2019-06-08T14:27:37.584Z,58.00
2019-06-08T14:30:08.370Z,56.80
2019-06-08T14:32:38.163Z,56.70
2019-06-08T14:35:08.721Z,56.60
2019-06-08T14:37:38.080Z,56.70
2019-06-08T14:40:08.802Z,56.60
2019-06-08T14:42:38.435Z,56.50
2019-06-08T14:45:11.018Z,55.30
2019-06-08T14:47:39.908Z,54.10
2019-06-08T14:50:09.077Z,54.00
2019-06-08T14:52:38.281Z,54.80
2019-06-08T14:55:07.978Z,54.10
2019-06-08T14:57:37.942Z,53.70
2019-06-08T15:00:09.556Z,53.20
2019-06-08T15:02:38.461Z,53.20
2019-06-08T15:05:07.864Z,53.50
2019-06-08T15:07:38.650Z,54.70
2019-06-08T15:10:09.867Z,53.40
2019-06-08T15:12:38.404Z,53.00
2019-06-08T15:15:10.787Z,53.10
2019-06-08T15:17:38.066Z,52.50
2019-06-08T15:20:08.810Z,52.20
2019-06-08T15:22:38.922Z,52.20
2019-06-08T15:25:11.090Z,51.10
2019-06-08T15:27:39.029Z,50.50
2019-06-08T15:30:07.855Z,51.10
2019-06-08T15:32:38.635Z,50.70
2019-06-08T15:35:08.054Z,51.40
2019-06-08T15:37:38.010Z,50.40
2019-06-08T15:40:08.623Z,49.40
2019-06-08T15:42:37.598Z,49.00
2019-06-08T15:45:08.610Z,48.90
2019-06-08T15:47:40.471Z,49.10
2019-06-08T15:50:08.829Z,48.60
2019-06-08T15:52:38.116Z,47.40
2019-06-08T15:55:08.505Z,48.40
2019-06-08T15:57:40.799Z,48.00
2019-06-08T16:00:10.278Z,48.50
2019-06-08T16:02:39.171Z,48.70
2019-06-08T16:05:09.212Z,48.70
2019-06-08T16:07:37.780Z,47.90
2019-06-08T16:10:07.623Z,47.60
2019-06-08T16:12:36.198Z,47.10
2019-06-08T16:15:06.489Z,46.50
2019-06-08T16:17:35.521Z,45.60
2019-06-08T16:20:04.955Z,45.60
2019-06-08T16:22:33.848Z,44.70
2019-06-08T16:25:02.441Z,44.00
2019-06-08T16:27:32.169Z,44.20
2019-06-08T16:30:08.718Z,42.60
2019-06-08T16:32:31.515Z,43.70
2019-06-08T16:35:00.258Z,43.40
2019-06-08T16:37:29.563Z,41.20
2019-06-08T16:39:58.345Z,41.40
2019-06-08T16:42:27.869Z,42.00
2019-06-08T16:44:56.944Z,42.00
2019-06-08T16:47:26.913Z,41.30
2019-06-08T16:49:55.678Z,41.00
2019-06-08T16:52:24.244Z,40.90
2019-06-08T16:54:52.914Z,40.70
2019-06-08T16:57:21.602Z,38.80
2019-06-08T16:59:50.208Z,38.70
2019-06-08T17:02:18.834Z,38.70
2019-06-08T17:04:47.399Z,38.60
2019-06-08T17:07:16.689Z,38.30
2019-06-08T17:09:45.418Z,38.50
2019-06-08T17:12:14.051Z,38.10
2019-06-08T17:14:42.614Z,37.60
2019-06-08T17:17:11.261Z,37.80
2019-06-08T17:19:40.337Z,37.70
2019-06-08T17:22:09.099Z,38.10
2019-06-08T17:24:38.648Z,37.20
2019-06-08T17:27:07.533Z,36.70
2019-06-08T17:29:36.898Z,36.60
2019-06-08T17:32:05.545Z,37.20
2019-06-08T17:34:34.969Z,37.00
2019-06-08T17:37:04.048Z,36.50
2019-06-08T17:39:33.744Z,36.40
2019-06-08T17:42:02.675Z,36.70
2019-06-08T17:44:32.177Z,37.20
2019-06-08T17:47:01.103Z,37.50
2019-06-08T17:49:30.213Z,37.20
2019-06-08T17:51:58.863Z,37.50
2019-06-08T17:54:29.929Z,38.00
2019-06-08T17:56:59.310Z,38.50
2019-06-08T17:59:27.916Z,38.10
2019-06-08T18:01:56.469Z,38.50
2019-06-08T18:04:25.134Z,38.60
2019-06-08T18:06:59.443Z,38.70
2019-06-08T18:09:28.276Z,38.60
2019-06-08T18:11:59.262Z,38.50
2019-06-08T18:14:28.889Z,38.20
2019-06-08T18:16:57.528Z,38.10
2019-06-08T18:19:30.330Z,38.40
2019-06-08T18:22:05.376Z,38.80
2019-06-08T18:24:32.733Z,39.10
2019-06-08T18:27:01.369Z,39.80
2019-06-08T18:29:30.052Z,40.10
2019-06-08T18:31:59.238Z,40.60
2019-06-08T18:34:28.735Z,41.50
2019-06-08T18:36:58.027Z,42.20
2019-06-08T18:39:28.645Z,44.10
2019-06-08T18:41:58.964Z,45.40
2019-06-08T18:44:28.426Z,46.30
2019-06-08T18:46:57.775Z,47.40
2019-06-08T18:49:28.773Z,47.80
2019-06-08T18:51:58.277Z,48.60
2019-06-08T18:54:27.925Z,49.70
2019-06-08T18:56:56.970Z,50.40
2019-06-08T18:59:25.523Z,51.10
2019-06-08T19:01:54.145Z,51.50
2019-06-08T19:04:22.718Z,51.70
2019-06-08T19:06:52.257Z,51.70
2019-06-08T19:09:20.929Z,52.30
2019-06-08T19:11:50.162Z,52.40
2019-06-08T19:14:20.846Z,53.50
2019-06-08T19:16:54.367Z,53.40
2019-06-08T19:19:19.454Z,54.00
2019-06-08T19:21:50.213Z,54.60
2019-06-08T19:24:18.703Z,55.20
2019-06-08T19:26:48.667Z,55.30
2019-06-08T19:29:19.418Z,55.40
2019-06-08T19:31:51.256Z,55.40
2019-06-08T19:34:18.439Z,55.40
2019-06-08T19:36:52.154Z,55.40
2019-06-08T19:39:17.903Z,55.40
2019-06-08T19:41:49.307Z,55.40
2019-06-08T19:44:18.311Z,55.40
2019-06-08T19:46:52.005Z,55.30
2019-06-08T19:49:17.481Z,55.40
2019-06-08T19:51:48.552Z,55.50
2019-06-08T19:54:18.245Z,55.40
2019-06-08T19:56:52.497Z,55.50
2019-06-08T19:59:18.269Z,55.60
2019-06-08T20:01:51.372Z,55.20
2019-06-08T20:04:18.269Z,56.00
2019-06-08T20:06:48.067Z,56.60
2019-06-08T20:09:17.619Z,56.80
2019-06-08T20:11:49.440Z,56.50
2019-06-08T20:14:16.535Z,56.70
2019-06-08T20:16:45.188Z,56.80
2019-06-08T20:19:13.747Z,56.60
2019-06-08T20:21:42.914Z,56.40
2019-06-08T20:24:14.589Z,56.20
2019-06-08T20:26:44.169Z,56.20
2019-06-08T20:29:16.313Z,56.40
2019-06-08T20:31:43.388Z,56.50
2019-06-08T20:34:12.039Z,56.50
2019-06-08T20:36:40.606Z,56.50
2019-06-08T20:39:09.278Z,56.80
2019-06-08T20:41:38.013Z,56.40
2019-06-08T20:44:08.534Z,56.30
2019-06-08T20:46:37.943Z,56.30
2019-06-08T20:49:08.335Z,56.40
2019-06-08T20:51:37.426Z,56.40
2019-06-08T20:54:07.846Z,56.60
2019-06-08T20:56:37.187Z,56.80
2019-06-08T20:59:08.007Z,57.20
2019-06-08T21:01:36.164Z,57.30
2019-06-08T21:04:04.869Z,57.30
2019-06-08T21:06:33.492Z,57.40
2019-06-08T21:09:02.070Z,57.50
2019-06-08T21:11:30.632Z,57.60
2019-06-08T21:13:59.258Z,57.80
2019-06-08T21:16:27.917Z,57.80
2019-06-08T21:18:57.984Z,57.70
2019-06-08T21:21:28.310Z,57.60
2019-06-08T21:24:01.144Z,57.80
2019-06-08T21:26:27.890Z,58.00
2019-06-08T21:29:00.104Z,58.20
2019-06-08T21:31:28.564Z,58.40
2019-06-08T21:34:00.690Z,58.50
2019-06-08T21:36:27.254Z,58.70
2019-06-08T21:39:01.941Z,58.80
2019-06-08T21:41:27.957Z,59.10
2019-06-08T21:44:00.674Z,59.20
2019-06-08T21:46:27.506Z,59.40
2019-06-08T21:48:59.143Z,59.50
2019-06-08T21:51:26.535Z,59.60
2019-06-08T21:53:56.829Z,59.60
2019-06-08T21:56:27.515Z,59.80
2019-06-08T21:58:58.990Z,59.90
2019-06-08T22:01:28.675Z,60.10
2019-06-08T22:03:58.980Z,60.10
2019-06-08T22:06:27.603Z,60.30
2019-06-08T22:08:58.884Z,60.30
2019-06-08T22:11:26.611Z,60.20
2019-06-08T22:13:56.613Z,60.40
2019-06-08T22:16:27.413Z,60.80
2019-06-08T22:18:58.237Z,60.90
2019-06-08T22:21:28.002Z,61.00
2019-06-08T22:23:58.183Z,61.30
2019-06-08T22:26:28.026Z,61.40
2019-06-08T22:28:58.376Z,61.50
2019-06-08T22:31:27.748Z,61.70
2019-06-08T22:33:59.084Z,61.80
2019-06-08T22:36:27.591Z,62.00
2019-06-08T22:38:58.892Z,61.90
2019-06-08T22:41:28.043Z,62.00
2019-06-08T22:43:59.224Z,61.90
2019-06-08T22:46:27.382Z,62.00
2019-06-08T22:49:00.317Z,62.00
2019-06-08T22:51:27.676Z,62.20
2019-06-08T22:53:59.238Z,62.60
2019-06-08T22:56:27.577Z,62.90
2019-06-08T22:59:00.554Z,63.10
2019-06-08T23:01:27.846Z,63.20
2019-06-08T23:03:59.363Z,63.70
2019-06-08T23:06:28.116Z,64.10
2019-06-08T23:08:59.901Z,64.40
2019-06-08T23:11:28.438Z,64.40
2019-06-08T23:13:59.573Z,64.60
2019-06-08T23:16:27.542Z,64.80
2019-06-08T23:18:57.668Z,64.90
2019-06-08T23:21:27.502Z,64.80
2019-06-08T23:23:58.333Z,64.90
2019-06-08T23:26:27.598Z,65.00
2019-06-08T23:28:56.205Z,65.10
2019-06-08T23:31:25.659Z,65.00
2019-06-08T23:33:56.526Z,65.10
2019-06-08T23:36:51.790Z,65.30
2019-06-08T23:38:56.933Z,65.30
2019-06-08T23:41:27.292Z,65.90
2019-06-08T23:43:57.372Z,66.50
2019-06-08T23:46:27.371Z,67.10
2019-06-08T23:48:58.948Z,67.50
2019-06-08T23:51:27.587Z,68.10
2019-06-08T23:53:58.307Z,68.10
2019-06-08T23:56:27.719Z,68.20
2019-06-08T23:58:56.422Z,68.10
